Elmer, NJ (08318)

3:21 PM EDT on August 28, 2015 (GMT -0400)
NJWxNet | | Change Station
CLOSE
Current Station
Personal Weather Station
Location: Deerfield Street, NJ
Elevation: 111 ft
Nearby Weather Stations

Elev 111 ft 39.52 °N, 75.20 °W | Updated 26 minutes ago

Mostly Cloudy
Mostly Cloudy
78 °F
Feels Like 79 °F
N
9
Wind Variable Wind from WNW
Gusts 11.0 mph

Today
High -- | Low -- °F
--% Chance of Precip.
Yesterday
High -- | Low -- °F
Precip. -- in
6:25 AM 7:38 PM
Waxing Gibbous, 99% visible
Pressure 30.16 in
Visibility 10.0 miles
Clouds Mostly Cloudy 6000 ft
Heat Index 79 °F
Dew Point 52 °F
Humidity 41%
Rainfall in
Snow Depth Not available.
UV 4 out of 12
Pollen 9.40 out of 12
Air Quality Not available.
Flu Activity Not available.
METAR KMIV 281854Z AUTO 32007KT 10SM BKN060 27/12 A3016 RMK AO2 SLP213 T02670122
Pressure 30.16 in
Visibility 10.0 miles
Clouds Mostly Cloudy 6000 ft
Heat Index 79 °F
Dew Point 52 °F
Humidity 41%
Rainfall in
Snow Depth Not available.
UV 4 out of 12
Pollen 9.40 out of 12
Air Quality Not available.
Flu Activity Not available.
METAR KMIV 281854Z AUTO 32007KT 10SM BKN060 27/12 A3016 RMK AO2 SLP213 T02670122

10-Day Weather Forecast

×

Almanac

Astronomy

Aug. 28, 2015 Rise Set
Actual Time
Civil Twilight
Nautical Twilight
Astronomical Twilight
Moon
Length of Visible Light
Length of Day
Tomorrow will be .
, % of the Moon is Illuminated

Today's Extremes

State Highs State Lows

Community

WunderPhotos

Upload Photos

1,850,462 photos uploaded!

WunderBlogs® & News

Nearby

Air Quality

  Air Quality AQ Index Pollutant
Not available.

Snow Depth

Station Depth Elevation

Earthquake Activity

City Distance Mag. Time & Date
Minimum magnitude displayed is 2.5.

Coastal Water Temperatures

Place Temperature

Stations

Nearby Weather Stations

Station Location Temp. Windchill Dew Point Humidity Wind Precip. Elev Updated Type